Quincy, WA

4:31 PM PST on February 26, 2017 (GMT -0800)
SE Quincy | | Change Station

Elev 1280 ft 47.23 °N, 119.84 °W | Updated 18 seconds ago

Overcast
Overcast
34.9 °F
Feels Like 35 °F
N
1.7
Wind Variable Wind from SSW

Today
High -- | Low -- °F
--% Chance of Precip.
Yesterday
High -- | Low -- °F
Precip. -- in
Pressure 29.71 in
Visibility 10.0 miles
Clouds Overcast 3000 ft
Windchill 35 °F
Dew Point 31 °F
Humidity 86%
Rainfall 0.00 in
Snow Depth Not available.
6:44 AM 5:40 PM
New Moon, 0% visible
METAR KEPH 262353Z AUTO 35005KT 10SM OVC030 02/M01 A2968 RMK AO2 SNB23E37 SLP061 P0000 60003 T00171011 10022 20006 56005
Pressure 29.71 in
Visibility 10.0 miles
Clouds Overcast 3000 ft
Windchill 35 °F
Dew Point 31 °F
Humidity 86%
Rainfall 0.00 in
Snow Depth Not available.
6:44 AM 5:40 PM
New Moon, 0% visible
METAR KEPH 262353Z AUTO 35005KT 10SM OVC030 02/M01 A2968 RMK AO2 SNB23E37 SLP061 P0000 60003 T00171011 10022 20006 56005

Get Your Daily Forecast Email!

Thanks for signing up!

Be on the lookout for a verification email in your inbox.

You'll start receiving the daily forecast at 8 AM.

×

10-Day Weather Forecast

Almanac

Astronomy

Feb. 26, 2017 Rise Set
Actual Time
Civil Twilight
Nautical Twilight
Astronomical Twilight
Moon
Length of Visible Light
Length of Day
Tomorrow will be .
, % of the Moon is Illuminated

Today's Extremes

State Highs State Lows

Community

WunderPhotos

Upload Photos

1,962,540 photos uploaded!

WunderBlog® & News

Nearby

Air Quality

  Air Quality AQ Index Pollutant
Not available.

Snow Depth

Station Depth Elevation

Earthquake Activity

City Distance Mag. Time & Date
Minimum magnitude displayed is 2.5.

Coastal Water Temperatures

Place Temperature

Stations

Nearby Weather Stations

Station Location Temp. Windchill Dew Point Humidity Wind Precip. Elev Updated Type
                   

Watches & Warnings

There are currently no watches in effect.